createdAt,value
2024-03-06T00:04:38.151Z,105351.00
2024-03-06T00:10:40.401Z,105351.00
2024-03-06T00:16:44.048Z,105346.00
2024-03-06T00:22:46.838Z,105354.00
2024-03-06T00:28:49.211Z,105352.00
2024-03-06T00:34:51.466Z,105354.00
2024-03-06T00:40:53.706Z,105353.00
2024-03-06T00:46:55.857Z,105351.00
2024-03-06T00:52:58.166Z,105354.00
2024-03-06T00:59:00.574Z,105351.00
2024-03-06T01:05:05.260Z,105352.00
2024-03-06T01:11:08.160Z,105350.00
2024-03-06T01:17:10.536Z,105346.00
2024-03-06T01:23:13.112Z,105352.00
2024-03-06T01:29:15.419Z,105351.00
2024-03-06T01:35:18.270Z,105349.00
2024-03-06T01:41:20.579Z,105351.00
2024-03-06T01:47:23.066Z,105348.00
2024-03-06T01:53:28.163Z,105349.00
2024-03-06T01:59:36.306Z,105345.00
2024-03-06T02:05:39.773Z,105348.00
2024-03-06T02:11:43.378Z,105349.00
2024-03-06T02:17:45.643Z,105348.00
2024-03-06T02:23:47.914Z,105351.00
2024-03-06T02:29:50.239Z,105354.00
2024-03-06T02:35:52.448Z,105348.00
2024-03-06T02:41:54.659Z,105348.00
2024-03-06T02:47:56.964Z,105353.00
2024-03-06T02:53:59.198Z,105349.00
2024-03-06T03:00:01.515Z,105350.00
2024-03-06T03:06:04.050Z,105347.00
2024-03-06T03:12:06.900Z,105351.00
2024-03-06T03:18:09.227Z,105349.00
2024-03-06T03:24:11.514Z,105349.00
2024-03-06T03:30:14.009Z,105351.00
2024-03-06T03:36:16.307Z,105349.00
2024-03-06T03:42:18.699Z,105353.00
2024-03-06T03:48:21.083Z,105355.00
2024-03-06T03:54:23.296Z,105352.00
2024-03-06T04:00:25.508Z,105348.00
2024-03-06T04:06:27.817Z,105351.00
2024-03-06T04:12:30.209Z,105347.00
2024-03-06T04:18:36.075Z,105349.00
2024-03-06T04:24:38.361Z,105349.00
2024-03-06T04:30:40.735Z,105353.00
2024-03-06T04:36:42.896Z,105351.00
2024-03-06T04:42:51.090Z,105356.00
2024-03-06T04:48:53.331Z,105347.00
2024-03-06T04:54:55.545Z,105349.00
2024-03-06T05:00:57.722Z,105354.00
2024-03-06T06:03:27.216Z,105358.00
2024-03-06T06:09:29.675Z,105354.00
2024-03-06T06:15:31.957Z,105355.00
2024-03-06T06:21:34.223Z,105354.00
2024-03-06T06:27:36.397Z,105352.00
2024-03-06T06:33:39.002Z,105353.00
2024-03-06T06:39:41.352Z,105353.00
2024-03-06T06:45:43.633Z,105353.00
2024-03-06T06:51:45.974Z,105352.00
2024-03-06T06:57:48.305Z,105354.00
2024-03-06T07:03:50.593Z,105351.00
2024-03-06T07:09:52.773Z,105353.00
2024-03-06T07:15:54.998Z,105349.00
2024-03-06T07:21:57.402Z,105353.00
2024-03-06T07:27:59.638Z,105352.00
2024-03-06T07:34:02.194Z,105358.00
2024-03-06T07:40:06.379Z,105353.00
2024-03-06T07:46:12.412Z,105352.00
2024-03-06T07:52:15.320Z,105354.00
2024-03-06T07:58:18.292Z,105353.00
2024-03-06T08:04:20.545Z,105353.00
2024-03-06T08:10:22.959Z,105357.00
2024-03-06T08:16:25.129Z,105356.00
2024-03-06T08:22:28.716Z,105359.00
2024-03-06T08:28:30.878Z,105355.00
2024-03-06T08:34:33.520Z,105359.00
2024-03-06T08:40:36.014Z,105356.00
2024-03-06T08:46:38.449Z,105358.00
2024-03-06T08:52:40.906Z,105353.00
2024-03-06T08:58:43.600Z,105356.00
2024-03-06T09:04:46.122Z,105359.00
2024-03-06T09:10:48.514Z,105358.00
2024-03-06T09:16:50.765Z,105359.00
2024-03-06T09:22:55.759Z,105355.00
2024-03-06T09:28:58.158Z,105361.00
2024-03-06T09:35:01.710Z,105357.00
2024-03-06T09:41:04.204Z,105360.00
2024-03-06T09:47:07.863Z,105359.00
2024-03-06T09:53:11.827Z,105356.00
2024-03-06T09:59:14.246Z,105359.00
2024-03-06T10:05:26.067Z,105359.00
2024-03-06T10:11:28.559Z,105351.00
2024-03-06T10:17:30.841Z,105358.00
2024-03-06T10:23:33.356Z,105357.00
2024-03-06T10:29:37.034Z,105359.00
2024-03-06T10:35:39.675Z,105356.00
2024-03-06T10:41:43.177Z,105358.00
2024-03-06T10:47:51.862Z,105364.00
2024-03-06T10:53:55.114Z,105363.00
2024-03-06T11:00:03.232Z,105360.00
2024-03-06T11:06:08.808Z,105357.00
2024-03-06T11:12:11.592Z,105362.00
2024-03-06T11:18:35.369Z,105364.00
2024-03-06T11:24:37.618Z,105356.00
2024-03-06T11:31:01.351Z,105361.00
2024-03-06T11:37:11.229Z,105356.00
2024-03-06T11:43:26.343Z,105360.00
2024-03-06T11:49:33.992Z,105361.00
2024-03-06T11:55:36.372Z,105363.00
2024-03-06T12:01:38.918Z,105361.00
2024-03-06T12:07:51.330Z,105361.00
2024-03-06T12:13:53.576Z,105357.00
2024-03-06T12:19:56.547Z,105363.00
2024-03-06T12:26:06.648Z,105361.00
2024-03-06T12:32:17.456Z,105359.00
2024-03-06T12:38:19.919Z,105358.00
2024-03-06T12:44:22.432Z,105359.00
2024-03-06T12:50:25.174Z,105358.00
2024-03-06T12:56:28.433Z,105362.00
2024-03-06T13:02:30.722Z,105357.00
2024-03-06T13:08:33.482Z,105358.00
2024-03-06T13:14:35.982Z,105356.00
2024-03-06T13:20:38.809Z,105358.00
2024-03-06T13:26:42.166Z,105361.00
2024-03-06T13:32:44.919Z,105357.00
2024-03-06T13:38:47.422Z,105361.00
2024-03-06T13:44:49.678Z,105358.00
2024-03-06T13:50:52.057Z,105359.00
2024-03-06T13:56:57.559Z,105358.00
2024-03-06T14:02:59.837Z,105359.00
2024-03-06T14:09:02.372Z,105356.00
2024-03-06T14:15:05.871Z,105356.00
2024-03-06T14:21:08.091Z,105353.00
2024-03-06T14:27:11.612Z,105357.00
2024-03-06T14:33:14.993Z,105359.00
2024-03-06T14:39:17.501Z,105356.00
2024-03-06T14:45:19.660Z,105359.00
2024-03-06T14:51:21.909Z,105357.00
2024-03-06T14:57:25.507Z,105355.00
2024-03-06T15:03:27.796Z,105360.00
2024-03-06T15:09:30.656Z,105357.00
2024-03-06T15:15:32.990Z,105359.00
2024-03-06T15:21:35.680Z,105356.00
2024-03-06T15:27:38.153Z,105355.00
2024-03-06T15:33:40.581Z,105356.00
2024-03-06T15:39:43.118Z,105357.00
2024-03-06T15:45:45.367Z,105355.00
2024-03-06T15:51:47.565Z,105355.00
2024-03-06T15:57:49.816Z,105358.00
2024-03-06T16:03:54.276Z,105356.00
2024-03-06T16:09:56.544Z,105358.00
2024-03-06T16:15:59.906Z,105354.00
2024-03-06T16:22:05.569Z,105353.00
2024-03-06T16:28:08.267Z,105356.00
2024-03-06T16:34:10.503Z,105356.00
2024-03-06T16:40:13.656Z,105354.00
2024-03-06T16:46:17.818Z,105358.00
2024-03-06T16:52:20.507Z,105356.00
2024-03-06T16:58:22.755Z,105352.00
2024-03-06T17:04:24.938Z,105353.00
2024-03-06T17:10:27.247Z,105353.00
2024-03-06T17:16:33.967Z,105361.00
2024-03-06T17:22:36.272Z,105356.00
2024-03-06T17:28:41.576Z,105353.00
2024-03-06T17:34:44.115Z,105356.00
2024-03-06T17:40:46.635Z,105354.00
2024-03-06T17:46:49.043Z,105355.00
2024-03-06T17:52:51.497Z,105355.00
2024-03-06T17:58:54.020Z,105356.00
2024-03-06T18:04:56.201Z,105352.00
2024-03-06T18:10:58.722Z,105354.00
2024-03-06T18:17:01.229Z,105356.00
2024-03-06T18:23:03.477Z,105354.00
2024-03-06T18:29:06.541Z,105356.00
2024-03-06T18:35:08.979Z,105355.00
2024-03-06T18:41:11.313Z,105355.00
2024-03-06T18:47:16.554Z,105358.00
2024-03-06T18:53:19.133Z,105354.00
2024-03-06T18:59:22.481Z,105354.00
2024-03-06T19:05:24.772Z,105353.00
2024-03-06T19:11:27.272Z,105355.00
2024-03-06T19:17:30.110Z,105358.00
2024-03-06T19:23:32.661Z,105357.00
2024-03-06T19:29:35.037Z,105359.00
2024-03-06T19:35:37.471Z,105352.00
2024-03-06T19:41:41.096Z,105355.00
2024-03-06T19:47:43.659Z,105354.00
2024-03-06T19:53:46.929Z,105353.00
2024-03-06T19:59:49.312Z,105355.00
2024-03-06T20:05:51.585Z,105353.00
2024-03-06T20:11:53.936Z,105356.00
2024-03-06T20:17:56.422Z,105354.00
2024-03-06T20:23:58.739Z,105356.00
2024-03-06T20:30:00.969Z,105354.00
2024-03-06T20:36:04.431Z,105356.00
2024-03-06T20:42:07.822Z,105351.00
2024-03-06T20:48:10.209Z,105356.00
2024-03-06T20:54:12.491Z,105356.00
2024-03-06T21:00:17.511Z,105351.00
2024-03-06T21:06:19.870Z,105356.00
2024-03-06T21:12:22.676Z,105352.00
2024-03-06T21:18:25.836Z,105353.00
2024-03-06T21:24:28.513Z,105357.00
2024-03-06T21:30:30.876Z,105350.00
2024-03-06T21:36:33.032Z,105355.00
2024-03-06T21:42:35.281Z,105359.00
2024-03-06T21:48:37.693Z,105353.00
2024-03-06T21:54:40.442Z,105356.00
2024-03-06T22:00:43.150Z,105356.00
2024-03-06T22:06:46.170Z,105358.00
2024-03-06T22:12:48.394Z,105351.00
2024-03-06T22:18:52.587Z,105353.00
2024-03-06T22:24:54.764Z,105354.00
2024-03-06T22:30:57.180Z,105356.00
2024-03-06T22:36:59.511Z,105358.00
2024-03-06T22:43:01.909Z,105357.00
2024-03-06T22:49:04.789Z,105352.00
2024-03-06T22:55:08.234Z,105351.00
2024-03-06T23:01:10.919Z,105356.00
2024-03-06T23:07:13.677Z,105352.00
2024-03-06T23:13:22.143Z,105354.00
2024-03-06T23:19:24.836Z,105353.00
2024-03-06T23:25:27.127Z,105352.00
2024-03-06T23:31:29.507Z,105357.00
2024-03-06T23:37:32.166Z,105348.00
2024-03-06T23:43:34.546Z,105351.00
2024-03-06T23:49:36.757Z,105348.00
2024-03-06T23:55:39.048Z,105350.00
